createdAt,value
2022-10-13T00:08:30.253Z,29.20
2022-10-13T00:18:35.944Z,28.70
2022-10-13T00:28:42.162Z,27.50
2022-10-13T00:38:48.394Z,26.10
2022-10-13T00:48:55.782Z,26.60
2022-10-13T00:59:04.564Z,22.00
2022-10-13T01:09:10.231Z,20.50
2022-10-13T01:19:35.466Z,24.40
2022-10-13T01:30:07.722Z,26.00
2022-10-13T01:40:25.095Z,21.80
2022-10-13T01:50:31.921Z,19.70
2022-10-13T02:00:44.963Z,18.10
2022-10-13T02:10:58.518Z,18.50
2022-10-13T02:21:05.362Z,18.00
2022-10-13T02:31:11.998Z,17.20
2022-10-13T02:41:17.673Z,18.30
2022-10-13T02:51:23.433Z,19.30
2022-10-13T03:01:29.338Z,18.20
2022-10-13T03:11:35.247Z,19.40
2022-10-13T03:21:41.186Z,19.00
2022-10-13T03:31:46.918Z,19.30
2022-10-13T03:41:52.651Z,18.90
2022-10-13T03:51:58.298Z,17.90
2022-10-13T04:02:04.238Z,19.90
2022-10-13T04:12:10.171Z,18.70
2022-10-13T04:22:15.851Z,19.50
2022-10-13T04:32:22.032Z,16.80
2022-10-13T04:42:28.184Z,19.00
2022-10-13T04:52:34.606Z,18.50
2022-10-13T05:02:40.647Z,18.30
2022-10-13T05:12:46.389Z,20.80
2022-10-13T05:22:52.152Z,20.30
2022-10-13T05:32:58.248Z,21.30
2022-10-13T05:43:04.816Z,18.50
2022-10-13T05:53:10.685Z,17.40
2022-10-13T06:03:19.190Z,16.00
2022-10-13T06:13:24.795Z,12.90
2022-10-13T06:23:30.434Z,13.00
2022-10-13T06:33:36.275Z,10.90
2022-10-13T06:43:41.839Z,12.30
2022-10-13T06:53:47.515Z,11.10
2022-10-13T07:03:53.679Z,9.30
2022-10-13T07:13:59.539Z,10.50
2022-10-13T07:24:06.034Z,11.30
2022-10-13T07:34:11.930Z,8.50
2022-10-13T07:44:17.624Z,7.90
2022-10-13T07:54:26.510Z,7.90
2022-10-13T08:04:33.761Z,7.40
2022-10-13T08:14:39.545Z,6.10
2022-10-13T08:24:45.393Z,6.60
2022-10-13T08:34:51.213Z,8.00
2022-10-13T08:45:39.834Z,7.10
2022-10-13T08:55:32.495Z,6.60
2022-10-13T09:05:44.870Z,6.40
2022-10-13T09:15:52.343Z,4.80
2022-10-13T09:25:59.249Z,5.30
2022-10-13T09:36:16.493Z,5.50
2022-10-13T09:46:26.363Z,4.60
2022-10-13T09:56:39.449Z,4.50
2022-10-13T10:06:46.967Z,3.40
2022-10-13T10:17:01.413Z,3.00
2022-10-13T10:27:16.140Z,2.80
2022-10-13T10:37:40.697Z,4.00
2022-10-13T10:47:49.789Z,4.40
2022-10-13T10:58:03.176Z,3.70
2022-10-13T11:08:29.764Z,3.50
2022-10-13T11:19:05.755Z,4.00
2022-10-13T11:29:40.916Z,4.00
2022-10-13T11:40:16.143Z,4.00
2022-10-13T11:50:31.376Z,4.50
2022-10-13T12:00:37.061Z,4.20
2022-10-13T12:10:42.773Z,4.40
2022-10-13T12:20:54.863Z,4.60
2022-10-13T12:31:01.870Z,4.80
2022-10-13T12:41:08.744Z,4.80
2022-10-13T12:51:25.609Z,5.00
2022-10-13T13:01:36.183Z,5.00
2022-10-13T13:11:42.182Z,3.90
2022-10-13T13:21:47.858Z,5.00
2022-10-13T13:31:53.497Z,4.20
2022-10-13T13:41:59.287Z,5.60
2022-10-13T13:52:05.007Z,4.80
2022-10-13T14:02:16.478Z,3.90
2022-10-13T14:12:22.681Z,4.60
2022-10-13T14:22:28.637Z,4.20
2022-10-13T14:32:35.200Z,5.60
2022-10-13T14:42:42.488Z,5.20
2022-10-13T14:52:48.129Z,6.10
2022-10-13T15:02:53.999Z,6.70
2022-10-13T15:12:59.684Z,8.40
2022-10-13T15:23:05.472Z,6.70
2022-10-13T15:33:11.112Z,7.20
2022-10-13T15:43:17.399Z,8.30
2022-10-13T15:53:23.712Z,8.20
2022-10-13T16:03:29.952Z,10.70
2022-10-13T16:13:35.738Z,9.90
2022-10-13T16:23:41.519Z,12.40
2022-10-13T16:33:47.851Z,12.40
2022-10-13T16:43:53.544Z,12.00
2022-10-13T16:54:04.186Z,12.40
2022-10-13T17:04:10.347Z,17.20
2022-10-13T17:14:16.107Z,19.90
2022-10-13T17:24:21.820Z,19.50
2022-10-13T17:34:27.584Z,20.50
2022-10-13T17:44:33.798Z,20.20
2022-10-13T17:54:39.465Z,21.50
2022-10-13T18:04:45.486Z,20.80
2022-10-13T18:14:51.485Z,21.80
2022-10-13T18:24:57.404Z,22.10
2022-10-13T18:35:03.392Z,24.00
2022-10-13T18:45:10.650Z,24.20
2022-10-13T18:55:16.513Z,24.10
2022-10-13T19:05:22.092Z,23.80
2022-10-13T19:15:27.904Z,21.20
2022-10-13T19:25:33.953Z,22.70
2022-10-13T19:35:44.360Z,25.50
2022-10-13T19:45:57.392Z,26.50
2022-10-13T19:56:05.547Z,25.40
2022-10-13T20:06:12.197Z,26.90
2022-10-13T20:16:21.405Z,23.70
2022-10-13T20:26:27.674Z,25.60
2022-10-13T20:36:38.362Z,22.70
2022-10-13T20:46:44.949Z,22.90
2022-10-13T20:56:52.547Z,23.00
2022-10-13T21:06:58.356Z,25.70
2022-10-13T21:17:04.202Z,23.40
2022-10-13T21:27:09.932Z,23.60
2022-10-13T21:37:15.708Z,22.90
2022-10-13T21:47:21.681Z,24.00
2022-10-13T21:57:27.516Z,21.70
2022-10-13T22:07:33.367Z,23.20
2022-10-13T22:17:39.232Z,22.20
2022-10-13T22:27:45.042Z,20.80
2022-10-13T22:37:50.690Z,23.50
2022-10-13T22:47:56.427Z,21.30
2022-10-13T22:58:02.114Z,22.90
2022-10-13T23:08:08.015Z,23.40
2022-10-13T23:18:14.246Z,22.30
2022-10-13T23:28:20.115Z,24.60
2022-10-13T23:38:27.014Z,22.20
2022-10-13T23:48:33.013Z,23.70
2022-10-13T23:58:40.575Z,21.90
